createdAt,value
2019-04-20T00:00:21.078Z,1025.51
2019-04-20T00:01:26.167Z,1025.49
2019-04-20T00:02:23.740Z,1025.46
2019-04-20T00:03:23.628Z,1025.43
2019-04-20T00:04:27.196Z,1025.42
2019-04-20T00:05:23.198Z,1025.46
2019-04-20T00:06:21.547Z,1025.43
2019-04-20T00:07:24.680Z,1025.37
2019-04-20T00:08:26.487Z,1025.46
2019-04-20T00:09:28.645Z,1025.44
2019-04-20T00:10:24.311Z,1025.40
2019-04-20T00:11:27.537Z,1025.40
2019-04-20T00:12:34.243Z,1025.45
2019-04-20T00:13:33.118Z,1025.39
2019-04-20T00:14:27.227Z,1025.48
2019-04-20T00:15:21.794Z,1025.41
2019-04-20T00:16:21.113Z,1025.40
2019-04-20T00:17:21.993Z,1025.39
2019-04-20T00:18:21.115Z,1025.33
2019-04-20T00:19:26.134Z,1025.36
2019-04-20T00:20:26.323Z,1025.35
2019-04-20T00:21:22.661Z,1025.34
2019-04-20T00:22:24.679Z,1025.27
2019-04-20T00:23:29.322Z,1025.32
2019-04-20T00:24:27.314Z,1025.30
2019-04-20T00:25:24.121Z,1025.24
2019-04-20T00:26:40.067Z,1025.23
2019-04-20T00:27:45.329Z,1025.27
2019-04-20T00:28:40.768Z,1025.31
2019-04-20T00:29:39.351Z,1025.26
2019-04-20T00:30:41.038Z,1025.21
2019-04-20T00:31:35.328Z,1025.22
2019-04-20T00:32:40.032Z,1025.26
2019-04-20T00:33:38.085Z,1025.23
2019-04-20T00:34:28.262Z,1025.21
2019-04-20T00:35:21.580Z,1025.15
2019-04-20T00:36:20.569Z,1025.16
2019-04-20T00:37:21.156Z,1025.13
2019-04-20T00:38:21.647Z,1025.13
2019-04-20T00:39:21.795Z,1025.19
2019-04-20T00:40:21.498Z,1025.17
2019-04-20T00:41:22.351Z,1025.23
2019-04-20T00:42:32.555Z,1025.20
2019-04-20T00:43:29.128Z,1025.19
2019-04-20T00:44:25.153Z,1025.15
2019-04-20T00:45:27.486Z,1025.16
2019-04-20T00:46:30.526Z,1025.21
2019-04-20T00:47:34.409Z,1025.22
2019-04-20T00:48:33.776Z,1025.22
2019-04-20T00:49:36.277Z,1025.16
2019-04-20T00:50:35.827Z,1025.16
2019-04-20T00:51:35.396Z,1025.10
2019-04-20T00:52:37.532Z,1025.14
2019-04-20T00:53:30.369Z,1025.12
2019-04-20T00:54:22.247Z,1025.14
2019-04-20T00:55:20.941Z,1025.16
2019-04-20T00:56:20.351Z,1025.16
2019-04-20T00:57:30.109Z,1025.17
2019-04-20T00:58:31.011Z,1025.13
2019-04-20T00:59:35.514Z,1025.15
2019-04-20T01:00:37.097Z,1025.05
2019-04-20T01:01:43.200Z,1025.11
2019-04-20T01:02:36.126Z,1025.05
2019-04-20T01:03:33.961Z,1025.09
2019-04-20T01:04:46.301Z,1025.10
2019-04-20T01:05:43.758Z,1025.07
2019-04-20T01:06:38.512Z,1025.07
2019-04-20T01:07:32.954Z,1025.11
2019-04-20T01:08:21.327Z,1025.09
2019-04-20T01:09:20.359Z,1025.10
2019-04-20T01:10:21.516Z,1025.10
2019-04-20T01:11:26.961Z,1025.09
2019-04-20T01:12:26.063Z,1025.12
2019-04-20T01:13:23.858Z,1025.06
2019-04-20T01:14:27.317Z,1025.11
2019-04-20T01:15:28.113Z,1025.09
2019-04-20T01:16:33.511Z,1025.04
2019-04-20T01:17:21.118Z,1025.12
2019-04-20T01:18:20.104Z,1025.08
2019-04-20T01:19:20.632Z,1025.08
2019-04-20T01:20:22.681Z,1025.05
2019-04-20T01:21:25.044Z,1024.97
2019-04-20T01:22:24.102Z,1025.05
2019-04-20T01:23:25.255Z,1025.04
2019-04-20T01:24:28.024Z,1025.00
2019-04-20T01:25:28.334Z,1025.02
2019-04-20T01:26:22.639Z,1025.06
2019-04-20T01:27:32.558Z,1025.02
2019-04-20T01:28:37.276Z,1025.02
2019-04-20T01:29:30.267Z,1025.01
2019-04-20T01:30:28.387Z,1024.99
2019-04-20T01:31:31.572Z,1025.06
2019-04-20T01:32:30.124Z,1025.04
2019-04-20T01:33:31.757Z,1025.00
2019-04-20T01:34:35.897Z,1024.96
2019-04-20T01:35:39.511Z,1024.98
2019-04-20T01:36:44.883Z,1024.99
2019-04-20T01:37:32.810Z,1025.04
2019-04-20T01:38:35.566Z,1024.98
2019-04-20T01:39:28.442Z,1024.99
2019-04-20T01:40:21.101Z,1024.97
2019-04-20T01:41:20.337Z,1024.98
2019-04-20T01:42:19.831Z,1024.94
2019-04-20T01:43:20.568Z,1024.95
2019-04-20T01:44:26.172Z,1024.95
2019-04-20T01:45:27.433Z,1025.00
2019-04-20T01:46:24.874Z,1024.95
2019-04-20T01:47:23.869Z,1024.99
2019-04-20T01:48:27.469Z,1024.97
2019-04-20T01:49:25.321Z,1024.94
2019-04-20T01:50:26.115Z,1024.97
2019-04-20T01:51:26.347Z,1025.00
2019-04-20T01:52:26.999Z,1025.02
2019-04-20T01:53:39.359Z,1024.99
2019-04-20T01:54:38.584Z,1025.04
2019-04-20T01:55:39.684Z,1025.05
2019-04-20T01:56:36.149Z,1025.07
2019-04-20T01:57:26.203Z,1025.06
2019-04-20T01:58:42.115Z,1025.09
2019-04-20T01:59:31.506Z,1025.06
2019-04-20T02:00:26.215Z,1025.06
2019-04-20T02:01:25.969Z,1025.02
2019-04-20T02:02:23.214Z,1025.08
2019-04-20T02:03:22.851Z,1025.01
2019-04-20T02:04:27.921Z,1025.00
2019-04-20T02:05:25.121Z,1024.99
2019-04-20T02:06:23.435Z,1024.95
2019-04-20T02:07:28.477Z,1025.02
2019-04-20T02:08:24.319Z,1024.97
2019-04-20T02:09:24.020Z,1024.98
2019-04-20T02:10:30.915Z,1024.95
2019-04-20T02:11:25.974Z,1024.98
2019-04-20T02:12:26.120Z,1024.93
2019-04-20T02:13:21.552Z,1024.92
2019-04-20T02:14:28.630Z,1024.99
2019-04-20T02:15:30.589Z,1024.97
2019-04-20T02:16:28.645Z,1024.98
2019-04-20T02:17:27.998Z,1025.01
2019-04-20T02:18:31.791Z,1024.94
2019-04-20T02:19:34.458Z,1025.01
2019-04-20T02:20:39.003Z,1025.02
2019-04-20T02:21:40.867Z,1024.97
2019-04-20T02:22:40.830Z,1024.98
2019-04-20T02:23:31.805Z,1024.98
2019-04-20T02:24:21.578Z,1025.06
2019-04-20T02:25:20.615Z,1025.05
2019-04-20T02:26:19.961Z,1025.05
2019-04-20T02:27:27.036Z,1025.00
2019-04-20T02:28:37.200Z,1024.94
2019-04-20T02:29:43.172Z,1025.01
2019-04-20T02:30:55.904Z,1025.04
2019-04-20T02:32:04.690Z,1025.04
2019-04-20T02:32:58.893Z,1025.08
2019-04-20T02:33:58.135Z,1025.03
2019-04-20T02:36:13.869Z,1025.03
2019-04-20T02:36:58.856Z,1025.02
2019-04-20T02:39:11.739Z,1025.05
2019-04-20T02:39:57.967Z,1025.05
2019-04-20T02:41:07.053Z,1025.04
2019-04-20T02:42:10.153Z,1025.09
2019-04-20T02:42:57.991Z,1025.10
2019-04-20T02:45:05.168Z,1025.10
2019-04-20T02:47:57.199Z,1025.07
2019-04-20T02:49:01.480Z,1025.05
2019-04-20T02:49:51.672Z,1025.07
2019-04-20T02:50:49.919Z,1025.13
2019-04-20T02:51:54.041Z,1025.02
2019-04-20T02:52:56.425Z,1025.03
2019-04-20T02:54:03.571Z,1025.03
2019-04-20T02:54:53.607Z,1025.09
2019-04-20T02:55:58.496Z,1025.04
2019-04-20T02:57:02.795Z,1025.05
2019-04-20T02:57:53.169Z,1025.06
2019-04-20T02:59:03.426Z,1025.01
2019-04-20T03:00:55.128Z,1024.99
2019-04-20T03:01:40.729Z,1025.06
2019-04-20T03:02:35.881Z,1025.05
2019-04-20T03:03:27.681Z,1025.01
2019-04-20T03:04:29.041Z,1025.02
2019-04-20T03:05:30.865Z,1025.04
2019-04-20T03:06:33.002Z,1025.02
2019-04-20T03:07:35.027Z,1025.07
2019-04-20T03:08:37.807Z,1025.05
2019-04-20T03:09:40.259Z,1025.01
2019-04-20T03:10:46.335Z,1025.00
2019-04-20T03:11:48.485Z,1025.02
2019-04-20T03:12:55.060Z,1025.03
2019-04-20T03:13:44.139Z,1025.04
2019-04-20T03:14:34.980Z,1025.03
2019-04-20T03:15:46.587Z,1025.06
2019-04-20T03:16:35.754Z,1025.04
2019-04-20T03:17:38.969Z,1025.00
2019-04-20T03:18:39.881Z,1025.02
2019-04-20T03:19:38.642Z,1025.05
2019-04-20T03:20:41.780Z,1025.08
2019-04-20T03:21:43.211Z,1025.06
2019-04-20T03:23:48.001Z,1025.07
2019-04-20T03:24:44.346Z,1025.07
2019-04-20T03:25:44.817Z,1025.06
2019-04-20T03:26:36.753Z,1025.09
2019-04-20T03:27:36.536Z,1025.08
2019-04-20T03:28:40.135Z,1025.03
2019-04-20T03:29:40.950Z,1025.06
2019-04-20T03:32:10.319Z,1025.03
2019-04-20T03:35:43.418Z,1025.03
2019-04-20T03:36:49.520Z,1025.02
2019-04-20T03:37:45.201Z,1025.03
2019-04-20T03:38:38.316Z,1025.07
2019-04-20T03:39:38.882Z,1025.03
2019-04-20T03:40:36.447Z,1025.03
2019-04-20T03:41:28.206Z,1025.03
2019-04-20T03:42:20.194Z,1025.05
2019-04-20T03:43:18.511Z,1025.09
2019-04-20T03:44:23.951Z,1025.08
2019-04-20T03:45:22.763Z,1025.09
2019-04-20T03:46:30.152Z,1025.10
2019-04-20T03:47:32.664Z,1025.13
2019-04-20T03:48:35.905Z,1025.03
2019-04-20T03:49:42.542Z,1025.04
2019-04-20T03:50:42.433Z,1025.08
2019-04-20T03:51:45.619Z,1025.07
2019-04-20T03:52:36.573Z,1025.08
2019-04-20T03:53:39.393Z,1025.06
2019-04-20T03:54:33.279Z,1025.08
2019-04-20T03:55:35.559Z,1025.06
2019-04-20T03:56:39.021Z,1025.07
2019-04-20T03:57:42.187Z,1025.09
2019-04-20T03:58:37.927Z,1025.14
2019-04-20T03:59:39.140Z,1025.10
2019-04-20T04:00:36.279Z,1025.07
2019-04-20T04:02:06.123Z,1025.12
2019-04-20T04:02:54.693Z,1025.07
2019-04-20T04:03:49.889Z,1025.06
2019-04-20T04:04:44.310Z,1025.17
2019-04-20T04:05:36.950Z,1025.13
2019-04-20T04:06:32.798Z,1025.10
2019-04-20T04:07:29.565Z,1025.15
2019-04-20T04:08:27.693Z,1025.09
2019-04-20T04:09:29.108Z,1025.10
2019-04-20T04:10:32.663Z,1025.10
2019-04-20T04:11:36.561Z,1025.12
2019-04-20T04:12:27.381Z,1025.14
2019-04-20T04:13:19.209Z,1025.22
2019-04-20T04:14:18.180Z,1025.16
2019-04-20T04:15:18.982Z,1025.20
2019-04-20T04:16:21.617Z,1025.25
2019-04-20T04:17:21.004Z,1025.26
2019-04-20T04:18:27.233Z,1025.24
2019-04-20T04:19:25.173Z,1025.29
2019-04-20T04:20:21.023Z,1025.25
2019-04-20T04:21:27.114Z,1025.19
2019-04-20T04:22:37.666Z,1025.24
2019-04-20T04:23:36.684Z,1025.26
2019-04-20T04:24:29.576Z,1025.27
2019-04-20T04:25:30.060Z,1025.25
2019-04-20T04:26:34.043Z,1025.29
2019-04-20T04:27:40.639Z,1025.29
2019-04-20T04:28:37.419Z,1025.29
2019-04-20T04:29:45.928Z,1025.24
2019-04-20T04:30:35.428Z,1025.24
2019-04-20T04:31:36.317Z,1025.24
2019-04-20T04:32:51.367Z,1025.28
2019-04-20T04:34:40.595Z,1025.28
2019-04-20T04:35:30.250Z,1025.28
2019-04-20T04:36:35.970Z,1025.30
2019-04-20T04:37:38.563Z,1025.23
2019-04-20T04:38:42.515Z,1025.29
2019-04-20T04:39:41.753Z,1025.28
2019-04-20T04:40:51.472Z,1025.27
2019-04-20T04:41:36.326Z,1025.22
2019-04-20T04:42:43.922Z,1025.22
2019-04-20T04:43:38.857Z,1025.20
2019-04-20T04:44:30.212Z,1025.28
2019-04-20T04:45:22.192Z,1025.30
2019-04-20T04:46:18.824Z,1025.27
2019-04-20T04:47:18.171Z,1025.17
2019-04-20T04:48:23.838Z,1025.26
2019-04-20T04:49:26.308Z,1025.22
2019-04-20T04:50:24.509Z,1025.20
2019-04-20T04:51:24.697Z,1025.27
2019-04-20T04:52:28.753Z,1025.25
2019-04-20T04:53:30.220Z,1025.28
2019-04-20T04:54:28.804Z,1025.31
2019-04-20T04:55:31.218Z,1025.29
2019-04-20T04:56:21.984Z,1025.34
2019-04-20T04:57:20.056Z,1025.32
2019-04-20T04:58:17.693Z,1025.30
2019-04-20T04:59:17.681Z,1025.29
2019-04-20T05:00:22.845Z,1025.27
2019-04-20T05:01:25.374Z,1025.37
2019-04-20T05:02:22.765Z,1025.37
2019-04-20T05:03:35.835Z,1025.38
2019-04-20T05:04:41.706Z,1025.38
2019-04-20T05:05:37.007Z,1025.37
2019-04-20T05:06:29.870Z,1025.39
2019-04-20T05:07:35.339Z,1025.41
2019-04-20T05:08:26.138Z,1025.37
2019-04-20T05:09:20.214Z,1025.42
2019-04-20T05:10:18.931Z,1025.39
2019-04-20T05:11:17.552Z,1025.43
2019-04-20T05:12:23.322Z,1025.41
2019-04-20T05:13:19.820Z,1025.45
2019-04-20T05:14:24.400Z,1025.37
2019-04-20T05:15:32.183Z,1025.38
2019-04-20T05:16:40.093Z,1025.34
2019-04-20T05:17:41.020Z,1025.41
2019-04-20T05:18:48.359Z,1025.43
2019-04-20T05:19:41.591Z,1025.42
2019-04-20T05:20:42.631Z,1025.41
2019-04-20T05:21:39.799Z,1025.41
2019-04-20T05:22:37.764Z,1025.41
2019-04-20T05:23:31.945Z,1025.35
2019-04-20T05:24:34.835Z,1025.36
2019-04-20T05:25:32.194Z,1025.30
2019-04-20T05:26:37.541Z,1025.39
2019-04-20T05:27:40.514Z,1025.37
2019-04-20T05:28:32.330Z,1025.42
2019-04-20T05:29:24.967Z,1025.40
2019-04-20T05:30:18.349Z,1025.45
2019-04-20T05:31:18.587Z,1025.46
2019-04-20T05:32:31.112Z,1025.42
2019-04-20T05:33:28.225Z,1025.41
2019-04-20T05:34:38.770Z,1025.36
2019-04-20T05:35:40.762Z,1025.40
2019-04-20T05:36:40.062Z,1025.43
2019-04-20T05:37:43.507Z,1025.43
2019-04-20T05:38:41.979Z,1025.34
2019-04-20T05:39:39.947Z,1025.42
2019-04-20T05:40:38.416Z,1025.38
2019-04-20T05:41:37.367Z,1025.39
2019-04-20T05:42:41.150Z,1025.40
2019-04-20T05:43:37.217Z,1025.43
2019-04-20T05:44:41.342Z,1025.40
2019-04-20T05:45:34.038Z,1025.41
2019-04-20T05:46:36.889Z,1025.36
2019-04-20T05:47:37.763Z,1025.39
2019-04-20T05:48:44.030Z,1025.34
2019-04-20T05:49:34.855Z,1025.37
2019-04-20T05:50:36.519Z,1025.39
2019-04-20T05:51:39.815Z,1025.38
2019-04-20T05:52:45.647Z,1025.41
2019-04-20T05:53:40.944Z,1025.43
2019-04-20T05:54:42.997Z,1025.38
2019-04-20T05:55:40.274Z,1025.39
2019-04-20T05:56:42.316Z,1025.41
2019-04-20T05:57:36.286Z,1025.36
2019-04-20T05:58:38.472Z,1025.44
2019-04-20T05:59:45.329Z,1025.32
2019-04-20T06:00:43.562Z,1025.36
2019-04-20T06:01:37.954Z,1025.32
2019-04-20T06:02:39.152Z,1025.30
2019-04-20T06:03:37.771Z,1025.30
2019-04-20T06:04:54.187Z,1025.24
2019-04-20T06:05:48.868Z,1025.29
2019-04-20T06:06:37.642Z,1025.34
2019-04-20T06:07:38.453Z,1025.36
2019-04-20T06:08:45.300Z,1025.39
2019-04-20T06:09:39.789Z,1025.32
2019-04-20T06:10:41.825Z,1025.41
2019-04-20T06:11:44.900Z,1025.40
2019-04-20T06:12:40.214Z,1025.42
2019-04-20T06:13:32.738Z,1025.46
2019-04-20T06:14:37.077Z,1025.50
2019-04-20T06:15:40.387Z,1025.44
2019-04-20T06:16:44.096Z,1025.49
2019-04-20T06:17:37.361Z,1025.39
2019-04-20T06:18:33.604Z,1025.42
2019-04-20T06:19:44.225Z,1025.41
2019-04-20T06:20:41.189Z,1025.40
2019-04-20T06:21:42.663Z,1025.41
2019-04-20T06:22:54.629Z,1025.48
2019-04-20T06:23:47.123Z,1025.42
2019-04-20T06:24:44.832Z,1025.46
2019-04-20T06:25:45.918Z,1025.44
2019-04-20T06:26:49.453Z,1025.38
2019-04-20T06:27:41.991Z,1025.42
2019-04-20T06:28:35.319Z,1025.42
2019-04-20T06:29:34.830Z,1025.35
2019-04-20T06:30:30.880Z,1025.39
2019-04-20T06:31:35.692Z,1025.40
2019-04-20T06:32:40.486Z,1025.33
2019-04-20T06:33:55.244Z,1025.36
2019-04-20T06:34:36.643Z,1025.38
2019-04-20T06:35:51.646Z,1025.42
2019-04-20T06:36:53.469Z,1025.39
2019-04-20T06:37:39.174Z,1025.43
2019-04-20T06:39:44.773Z,1025.40
2019-04-20T06:40:54.807Z,1025.36
2019-04-20T06:41:53.861Z,1025.41
2019-04-20T06:42:37.046Z,1025.38
2019-04-20T06:43:42.185Z,1025.38
2019-04-20T06:44:41.266Z,1025.39
2019-04-20T06:45:44.790Z,1025.43
2019-04-20T06:46:45.593Z,1025.39
2019-04-20T06:47:44.147Z,1025.43
2019-04-20T06:48:44.485Z,1025.42
2019-04-20T06:49:35.429Z,1025.42
2019-04-20T06:51:34.639Z,1025.33
2019-04-20T06:52:39.776Z,1025.34
2019-04-20T06:53:45.352Z,1025.40
2019-04-20T06:54:39.458Z,1025.37
2019-04-20T06:55:45.213Z,1025.41
2019-04-20T06:56:42.648Z,1025.44
2019-04-20T06:57:43.213Z,1025.38
2019-04-20T06:58:47.525Z,1025.31
2019-04-20T06:59:57.837Z,1025.42
2019-04-20T07:00:37.692Z,1025.35
2019-04-20T07:01:43.555Z,1025.41
2019-04-20T07:03:59.198Z,1025.41
2019-04-20T07:05:39.550Z,1025.38
2019-04-20T07:06:50.211Z,1025.30
2019-04-20T07:07:41.513Z,1025.39
2019-04-20T07:08:49.312Z,1025.41
2019-04-20T07:09:48.050Z,1025.42
2019-04-20T07:10:39.505Z,1025.35
2019-04-20T07:11:37.413Z,1025.39
2019-04-20T07:12:39.958Z,1025.41
2019-04-20T07:13:28.943Z,1025.38
2019-04-20T07:14:31.387Z,1025.45
2019-04-20T07:15:33.915Z,1025.30
2019-04-20T07:16:35.821Z,1025.38
2019-04-20T07:18:42.566Z,1025.41
2019-04-20T07:19:36.047Z,1025.52
2019-04-20T07:20:48.053Z,1025.47
2019-04-20T07:21:55.898Z,1025.46
2019-04-20T07:22:51.109Z,1025.47
2019-04-20T07:23:40.681Z,1025.48
2019-04-20T07:24:48.889Z,1025.41
2019-04-20T07:25:43.397Z,1025.43
2019-04-20T07:26:41.811Z,1025.38
2019-04-20T07:27:36.855Z,1025.43
2019-04-20T07:28:47.489Z,1025.39
2019-04-20T07:29:43.276Z,1025.40
2019-04-20T07:30:40.348Z,1025.45
2019-04-20T07:31:36.865Z,1025.36
2019-04-20T07:32:46.320Z,1025.37
2019-04-20T07:33:39.411Z,1025.33
2019-04-20T07:34:38.712Z,1025.40
2019-04-20T07:35:35.414Z,1025.36
2019-04-20T07:36:40.217Z,1025.37
2019-04-20T07:38:04.597Z,1025.32
2019-04-20T07:38:41.842Z,1025.34
2019-04-20T07:39:41.382Z,1025.34
2019-04-20T07:40:36.084Z,1025.41
2019-04-20T07:41:50.228Z,1025.39
2019-04-20T07:42:42.522Z,1025.38
2019-04-20T07:43:51.156Z,1025.41
2019-04-20T07:44:47.239Z,1025.37
2019-04-20T07:45:33.163Z,1025.40
2019-04-20T07:46:47.452Z,1025.34
2019-04-20T07:47:41.517Z,1025.45
2019-04-20T07:48:39.610Z,1025.42
2019-04-20T07:49:37.304Z,1025.38
2019-04-20T07:50:32.100Z,1025.35
2019-04-20T07:51:25.986Z,1025.39
2019-04-20T07:52:24.382Z,1025.36
2019-04-20T07:53:33.326Z,1025.36
2019-04-20T07:54:47.609Z,1025.36
2019-04-20T07:55:47.829Z,1025.37
2019-04-20T07:56:42.322Z,1025.38
2019-04-20T07:57:34.093Z,1025.39
2019-04-20T07:58:29.480Z,1025.40
2019-04-20T07:59:27.609Z,1025.38
2019-04-20T08:00:51.425Z,1025.39
2019-04-20T08:01:45.419Z,1025.33
2019-04-20T08:02:46.889Z,1025.32
2019-04-20T08:03:39.082Z,1025.33
2019-04-20T08:04:33.896Z,1025.38
2019-04-20T08:05:31.959Z,1025.37
2019-04-20T08:06:25.081Z,1025.38
2019-04-20T08:07:18.776Z,1025.32
2019-04-20T08:08:32.686Z,1025.38
2019-04-20T08:09:28.076Z,1025.38
2019-04-20T08:10:33.770Z,1025.39
2019-04-20T08:11:41.323Z,1025.35
2019-04-20T08:12:43.919Z,1025.40
2019-04-20T08:13:51.211Z,1025.32
2019-04-20T08:14:42.493Z,1025.40
2019-04-20T08:15:42.764Z,1025.31
2019-04-20T08:17:48.368Z,1025.32
2019-04-20T08:18:41.513Z,1025.28
2019-04-20T08:19:36.803Z,1025.30
2019-04-20T08:20:32.984Z,1025.25
2019-04-20T08:21:35.233Z,1025.22
2019-04-20T08:22:41.067Z,1025.21
2019-04-20T08:23:42.944Z,1025.18
2019-04-20T08:24:34.581Z,1025.20
2019-04-20T08:25:27.801Z,1025.20
2019-04-20T08:26:24.719Z,1025.26
2019-04-20T08:27:18.038Z,1025.15
2019-04-20T08:28:22.786Z,1025.17
2019-04-20T08:29:31.663Z,1025.18
2019-04-20T08:30:33.578Z,1025.19
2019-04-20T08:31:31.247Z,1025.22
2019-04-20T08:32:32.486Z,1025.27
2019-04-20T08:33:36.209Z,1025.20
2019-04-20T08:34:43.077Z,1025.18
2019-04-20T08:35:46.019Z,1025.18
2019-04-20T08:36:39.172Z,1025.16
2019-04-20T08:37:38.010Z,1025.23
2019-04-20T08:39:03.958Z,1025.18
2019-04-20T08:39:52.201Z,1025.11
2019-04-20T08:40:37.351Z,1025.11
2019-04-20T08:41:29.656Z,1025.11
2019-04-20T08:42:40.469Z,1025.15
2019-04-20T08:45:02.827Z,1025.13
2019-04-20T08:45:41.926Z,1025.10
2019-04-20T08:46:44.590Z,1025.00
2019-04-20T08:47:48.699Z,1025.11
2019-04-20T08:48:43.439Z,1025.12
2019-04-20T08:49:51.876Z,1025.14
2019-04-20T08:50:40.070Z,1025.14
2019-04-20T08:51:41.632Z,1025.11
2019-04-20T08:52:55.167Z,1025.06
2019-04-20T08:53:37.053Z,1025.06
2019-04-20T08:54:32.649Z,1025.10
2019-04-20T08:55:33.459Z,1025.01
2019-04-20T08:56:31.124Z,1024.94
2019-04-20T08:57:16.153Z,1024.97
2019-04-20T08:58:15.971Z,1025.04
2019-04-20T08:59:15.063Z,1025.02
2019-04-20T09:00:19.146Z,1025.00
2019-04-20T09:01:21.559Z,1024.93
2019-04-20T09:02:17.448Z,1024.93
2019-04-20T09:03:24.536Z,1024.96
2019-04-20T09:04:22.289Z,1024.95
2019-04-20T09:05:30.435Z,1024.93
2019-04-20T09:06:33.686Z,1024.88
2019-04-20T09:07:20.239Z,1024.91
2019-04-20T09:08:23.551Z,1024.89
2019-04-20T09:09:44.300Z,1024.85
2019-04-20T09:10:39.515Z,1024.83
2019-04-20T09:11:40.061Z,1024.86
2019-04-20T09:12:31.946Z,1024.86
2019-04-20T09:13:24.586Z,1024.83
2019-04-20T09:14:16.308Z,1024.88
2019-04-20T09:15:14.895Z,1024.91
2019-04-20T09:16:15.377Z,1024.86
2019-04-20T09:17:24.126Z,1024.82
2019-04-20T09:18:25.127Z,1024.85
2019-04-20T09:19:28.688Z,1024.84
2019-04-20T09:20:29.469Z,1024.83
2019-04-20T09:21:32.928Z,1024.87
2019-04-20T09:22:28.303Z,1024.90
2019-04-20T09:23:33.093Z,1024.80
2019-04-20T09:24:34.645Z,1024.83
2019-04-20T09:25:48.804Z,1024.75
2019-04-20T09:26:33.885Z,1024.82
2019-04-20T09:27:25.365Z,1024.69
2019-04-20T09:28:25.654Z,1024.75
2019-04-20T09:29:29.322Z,1024.82
2019-04-20T09:30:27.981Z,1024.74
2019-04-20T09:31:30.987Z,1024.78
2019-04-20T09:32:31.251Z,1024.72
2019-04-20T09:33:33.902Z,1024.68
2019-04-20T09:34:33.761Z,1024.65
2019-04-20T09:35:30.146Z,1024.69
2019-04-20T09:36:30.733Z,1024.68
2019-04-20T09:37:32.054Z,1024.65
2019-04-20T09:38:30.595Z,1024.71
2019-04-20T09:39:24.703Z,1024.69
2019-04-20T09:40:40.224Z,1024.73
2019-04-20T09:41:42.215Z,1024.69
2019-04-20T09:42:15.590Z,1024.71
2019-04-20T09:43:17.046Z,1024.69
2019-04-20T09:44:15.588Z,1024.61
2019-04-20T09:45:24.848Z,1024.65
2019-04-20T09:46:15.792Z,1024.64
2019-04-20T09:47:24.897Z,1024.63
2019-04-20T09:48:23.243Z,1024.55
2019-04-20T09:49:26.003Z,1024.65
2019-04-20T09:50:33.458Z,1024.66
2019-04-20T09:51:33.520Z,1024.58
2019-04-20T09:52:29.047Z,1024.63
2019-04-20T09:53:29.872Z,1024.63
2019-04-20T09:54:35.831Z,1024.54
2019-04-20T09:55:29.079Z,1024.58
2019-04-20T09:56:32.452Z,1024.56
2019-04-20T09:57:34.648Z,1024.58
2019-04-20T09:58:27.192Z,1024.62
2019-04-20T09:59:33.123Z,1024.61
2019-04-20T10:00:28.943Z,1024.59
2019-04-20T10:01:25.739Z,1024.55
2019-04-20T10:02:21.843Z,1024.56
2019-04-20T10:03:16.551Z,1024.50
2019-04-20T10:04:15.317Z,1024.55
2019-04-20T10:05:23.313Z,1024.54
2019-04-20T10:06:18.000Z,1024.53
2019-04-20T10:07:18.551Z,1024.54
2019-04-20T10:08:15.579Z,1024.56
2019-04-20T10:09:15.673Z,1024.51
2019-04-20T10:10:26.086Z,1024.48
2019-04-20T10:11:15.281Z,1024.53
2019-04-20T10:12:15.587Z,1024.46
2019-04-20T10:13:15.395Z,1024.49
2019-04-20T10:14:14.496Z,1024.45
2019-04-20T10:15:19.510Z,1024.42
2019-04-20T10:16:15.645Z,1024.48
2019-04-20T10:17:14.223Z,1024.43
2019-04-20T10:18:14.227Z,1024.45
2019-04-20T10:19:20.620Z,1024.41
2019-04-20T10:20:27.244Z,1024.47
2019-04-20T10:21:15.847Z,1024.40
2019-04-20T10:22:14.910Z,1024.41
2019-04-20T10:23:14.428Z,1024.42
2019-04-20T10:24:14.655Z,1024.37
2019-04-20T10:25:14.996Z,1024.33
2019-04-20T10:26:14.452Z,1024.36
2019-04-20T10:27:14.621Z,1024.38
2019-04-20T10:28:14.119Z,1024.29
2019-04-20T10:29:15.352Z,1024.31
2019-04-20T10:30:14.591Z,1024.26
2019-04-20T10:31:14.752Z,1024.24
2019-04-20T10:32:16.018Z,1024.29
2019-04-20T10:33:15.381Z,1024.27
2019-04-20T10:34:14.032Z,1024.24
2019-04-20T10:35:16.880Z,1024.30
2019-04-20T10:36:15.110Z,1024.29
2019-04-20T10:37:14.014Z,1024.29
2019-04-20T10:38:13.994Z,1024.23
2019-04-20T10:39:13.998Z,1024.23
2019-04-20T10:40:27.962Z,1024.25
2019-04-20T10:41:28.000Z,1024.23
2019-04-20T10:42:16.233Z,1024.20
2019-04-20T10:43:14.204Z,1024.23
2019-04-20T10:44:14.686Z,1024.28
2019-04-20T10:45:14.961Z,1024.15
2019-04-20T10:46:15.051Z,1024.25
2019-04-20T10:47:14.736Z,1024.21
2019-04-20T10:48:15.087Z,1024.22
2019-04-20T10:49:15.332Z,1024.15
2019-04-20T10:50:13.870Z,1024.18
2019-04-20T10:51:13.856Z,1024.11
2019-04-20T10:52:13.852Z,1024.19
2019-04-20T10:53:14.070Z,1024.17
2019-04-20T10:54:14.203Z,1024.18
2019-04-20T10:55:14.703Z,1024.16
2019-04-20T10:56:13.816Z,1024.11
2019-04-20T10:57:13.795Z,1024.13
2019-04-20T10:58:13.780Z,1024.12
2019-04-20T10:59:13.922Z,1024.17
2019-04-20T11:00:13.769Z,1024.13
2019-04-20T11:01:13.761Z,1024.11
2019-04-20T11:02:14.053Z,1024.18
2019-04-20T11:03:13.725Z,1024.20
2019-04-20T11:04:14.664Z,1024.15
2019-04-20T11:05:14.754Z,1024.13
2019-04-20T11:06:14.500Z,1024.22
2019-04-20T11:07:14.664Z,1024.20
2019-04-20T11:08:14.879Z,1024.18
2019-04-20T11:09:14.401Z,1024.12
2019-04-20T11:10:20.587Z,1024.11
2019-04-20T11:11:22.862Z,1024.09
2019-04-20T11:12:14.664Z,1024.10
2019-04-20T11:13:15.059Z,1024.13
2019-04-20T11:14:22.809Z,1024.08
2019-04-20T11:15:14.664Z,1024.08
2019-04-20T11:16:14.716Z,1024.00
2019-04-20T11:17:14.134Z,1024.07
2019-04-20T11:18:13.576Z,1024.05
2019-04-20T11:19:13.646Z,1023.99
2019-04-20T11:20:13.549Z,1024.08
2019-04-20T11:21:13.567Z,1023.99
2019-04-20T11:22:14.525Z,1024.08
2019-04-20T11:23:13.995Z,1023.97
2019-04-20T11:24:14.324Z,1023.92
2019-04-20T11:25:14.461Z,1023.99
2019-04-20T11:26:14.083Z,1023.97
2019-04-20T11:27:14.257Z,1023.97
2019-04-20T11:28:14.367Z,1024.01
2019-04-20T11:29:13.813Z,1023.97
2019-04-20T11:30:14.105Z,1024.00
2019-04-20T11:31:14.426Z,1023.95
2019-04-20T11:32:14.242Z,1023.93
2019-04-20T11:33:14.048Z,1023.91
2019-04-20T11:34:15.012Z,1023.92
2019-04-20T11:35:22.964Z,1023.89
2019-04-20T11:36:14.970Z,1023.91
2019-04-20T11:37:13.372Z,1023.93
2019-04-20T11:38:15.175Z,1023.92
2019-04-20T11:39:14.596Z,1023.91
2019-04-20T11:40:13.339Z,1023.92
2019-04-20T11:41:20.954Z,1023.87
2019-04-20T11:42:14.335Z,1023.85
2019-04-20T11:43:13.608Z,1023.83
2019-04-20T11:44:13.753Z,1023.79
2019-04-20T11:45:13.357Z,1023.84
2019-04-20T11:46:14.433Z,1023.78
2019-04-20T11:47:14.608Z,1023.75
2019-04-20T11:48:13.686Z,1023.78
2019-04-20T11:49:13.285Z,1023.73
2019-04-20T11:50:13.682Z,1023.73
2019-04-20T11:51:13.807Z,1023.73
2019-04-20T11:52:14.224Z,1023.77
2019-04-20T11:53:13.333Z,1023.72
2019-04-20T11:54:14.415Z,1023.73
2019-04-20T11:55:13.185Z,1023.76
2019-04-20T11:56:17.700Z,1023.74
2019-04-20T11:57:15.339Z,1023.75
2019-04-20T11:58:14.229Z,1023.78
2019-04-20T11:59:13.132Z,1023.73
2019-04-20T12:00:13.220Z,1023.76
2019-04-20T12:01:18.200Z,1023.75
2019-04-20T12:02:21.507Z,1023.68
2019-04-20T12:03:23.329Z,1023.75
2019-04-20T12:04:27.139Z,1023.69
2019-04-20T12:05:26.144Z,1023.72
2019-04-20T12:06:14.970Z,1023.67
2019-04-20T12:07:13.060Z,1023.71
2019-04-20T12:08:13.205Z,1023.62
2019-04-20T12:09:13.034Z,1023.60
2019-04-20T12:10:18.522Z,1023.65
2019-04-20T12:11:28.043Z,1023.60
2019-04-20T12:12:26.797Z,1023.57
2019-04-20T12:13:14.738Z,1023.64
2019-04-20T12:14:12.988Z,1023.64
2019-04-20T12:15:12.970Z,1023.55
2019-04-20T12:16:13.909Z,1023.55
2019-04-20T12:17:13.579Z,1023.54
2019-04-20T12:18:13.740Z,1023.60
2019-04-20T12:19:12.927Z,1023.54
2019-04-20T12:20:12.914Z,1023.57
2019-04-20T12:21:12.962Z,1023.62
2019-04-20T12:22:13.869Z,1023.53
2019-04-20T12:23:12.885Z,1023.49
2019-04-20T12:24:14.222Z,1023.53